createdAt,value
2018-09-15T00:00:02.011Z,21.69
2018-09-15T00:01:01.937Z,21.69
2018-09-15T00:02:01.992Z,21.67
2018-09-15T00:03:01.948Z,21.68
2018-09-15T00:04:02.131Z,21.67
2018-09-15T00:05:01.901Z,21.69
2018-09-15T00:06:01.784Z,21.65
2018-09-15T00:07:01.853Z,21.67
2018-09-15T00:08:02.136Z,21.68
2018-09-15T00:09:02.112Z,21.66
2018-09-15T00:10:02.021Z,21.66
2018-09-15T00:11:02.000Z,21.68
2018-09-15T00:12:01.962Z,21.67
2018-09-15T00:13:03.685Z,21.68
2018-09-15T00:14:02.171Z,21.65
2018-09-15T00:15:02.060Z,21.66
2018-09-15T00:16:04.502Z,21.66
2018-09-15T00:17:04.570Z,21.67
2018-09-15T00:18:04.334Z,21.66
2018-09-15T00:19:02.414Z,21.67
2018-09-15T00:20:02.576Z,21.68
2018-09-15T00:21:03.867Z,21.67
2018-09-15T00:22:04.094Z,21.66
2018-09-15T00:23:02.412Z,21.67
2018-09-15T00:24:04.885Z,21.68
2018-09-15T00:25:02.211Z,21.68
2018-09-15T00:26:04.424Z,21.67
2018-09-15T00:27:02.345Z,21.66
2018-09-15T00:28:04.555Z,21.66
2018-09-15T00:29:02.351Z,21.67
2018-09-15T00:30:04.509Z,21.66
2018-09-15T00:31:02.074Z,21.66
2018-09-15T00:32:02.208Z,21.66
2018-09-15T00:33:02.421Z,21.66
2018-09-15T00:34:02.100Z,21.66
2018-09-15T00:35:02.426Z,21.67
2018-09-15T00:36:02.196Z,21.67
2018-09-15T00:37:04.610Z,21.66
2018-09-15T00:38:04.627Z,21.66
2018-09-15T00:39:05.092Z,21.65
2018-09-15T00:40:02.084Z,21.67
2018-09-15T00:41:02.801Z,21.66
2018-09-15T00:42:04.290Z,21.66
2018-09-15T00:43:04.334Z,21.65
2018-09-15T00:44:02.075Z,21.67
2018-09-15T00:45:02.812Z,21.66
2018-09-15T00:46:04.678Z,21.66
2018-09-15T00:47:02.509Z,21.66
2018-09-15T00:48:02.398Z,21.65
2018-09-15T00:49:04.528Z,21.65
2018-09-15T00:50:04.699Z,21.65
2018-09-15T00:51:02.436Z,21.66
2018-09-15T00:52:03.849Z,21.66
2018-09-15T00:53:02.413Z,21.67
2018-09-15T00:54:04.658Z,21.64
2018-09-15T00:55:02.847Z,21.66
2018-09-15T00:56:04.449Z,21.67
2018-09-15T00:57:04.597Z,21.64
2018-09-15T00:58:04.399Z,21.66
2018-09-15T00:59:02.455Z,21.66
2018-09-15T01:00:02.124Z,21.64
2018-09-15T01:01:04.449Z,21.69
2018-09-15T01:02:04.627Z,21.66
2018-09-15T01:03:02.398Z,21.67
2018-09-15T01:04:04.714Z,21.67
2018-09-15T01:05:02.400Z,21.66
2018-09-15T01:06:04.637Z,21.67
2018-09-15T01:07:02.793Z,21.66
2018-09-15T01:08:03.839Z,21.64
2018-09-15T01:09:04.383Z,21.65
2018-09-15T01:10:04.524Z,21.68
2018-09-15T01:11:02.453Z,21.65
2018-09-15T01:12:02.134Z,21.65
2018-09-15T01:13:04.478Z,21.67
2018-09-15T01:14:02.711Z,21.66
2018-09-15T01:15:02.638Z,21.68
2018-09-15T01:16:01.968Z,21.67
2018-09-15T01:17:01.955Z,21.66
2018-09-15T01:18:02.372Z,21.65
2018-09-15T01:19:01.816Z,21.68
2018-09-15T01:20:02.473Z,21.66
2018-09-15T01:21:01.824Z,21.67
2018-09-15T01:22:02.155Z,21.66
2018-09-15T01:23:01.711Z,21.66
2018-09-15T01:24:02.108Z,21.66
2018-09-15T01:25:01.984Z,21.66
2018-09-15T01:26:02.619Z,21.66
2018-09-15T01:27:01.846Z,21.66
2018-09-15T01:28:01.921Z,21.66
2018-09-15T01:29:01.829Z,21.65
2018-09-15T01:30:02.040Z,21.66
2018-09-15T01:31:01.896Z,21.64
2018-09-15T01:32:01.828Z,21.65
2018-09-15T01:33:01.931Z,21.66
2018-09-15T01:34:01.985Z,21.66
2018-09-15T01:35:01.892Z,21.65
2018-09-15T01:36:01.999Z,21.67
2018-09-15T01:37:02.210Z,21.67
2018-09-15T01:38:01.787Z,21.66
2018-09-15T01:39:01.749Z,21.65
2018-09-15T01:40:02.017Z,21.65
2018-09-15T01:41:01.741Z,21.64
2018-09-15T01:42:02.274Z,21.65
2018-09-15T01:43:01.904Z,21.66
2018-09-15T01:44:01.953Z,21.65
2018-09-15T01:45:01.757Z,21.65
2018-09-15T01:46:01.893Z,21.66
2018-09-15T01:47:01.742Z,21.67
2018-09-15T01:48:02.152Z,21.65
2018-09-15T01:49:01.823Z,21.67
2018-09-15T01:50:01.906Z,21.65
2018-09-15T01:51:01.891Z,21.65
2018-09-15T01:52:01.966Z,21.64
2018-09-15T01:53:01.749Z,21.66
2018-09-15T01:54:02.000Z,21.65
2018-09-15T01:55:02.102Z,21.66
2018-09-15T01:56:02.042Z,21.64
2018-09-15T01:57:01.759Z,21.66
2018-09-15T01:58:01.880Z,21.67
2018-09-15T01:59:02.052Z,21.65
2018-09-15T02:00:02.017Z,21.63
2018-09-15T02:01:02.198Z,21.64
2018-09-15T02:02:01.961Z,21.65
2018-09-15T02:03:01.907Z,21.63
2018-09-15T02:04:01.832Z,21.64
2018-09-15T02:05:01.852Z,21.66
2018-09-15T02:06:01.936Z,21.65
2018-09-15T02:07:01.823Z,21.64
2018-09-15T02:08:02.071Z,21.64
2018-09-15T02:09:01.869Z,21.64
2018-09-15T02:10:01.935Z,21.64
2018-09-15T02:11:01.690Z,21.65
2018-09-15T02:12:01.847Z,21.64
2018-09-15T02:13:01.797Z,21.63
2018-09-15T02:14:01.978Z,21.67
2018-09-15T02:15:01.899Z,21.65
2018-09-15T02:16:01.888Z,21.65
2018-09-15T02:17:01.714Z,21.64
2018-09-15T02:18:01.846Z,21.65
2018-09-15T02:19:02.729Z,21.65
2018-09-15T02:20:01.873Z,21.65
2018-09-15T02:21:01.697Z,21.63
2018-09-15T02:22:02.175Z,21.64
2018-09-15T02:23:02.325Z,21.64
2018-09-15T02:24:01.862Z,21.63
2018-09-15T02:25:01.813Z,21.66
2018-09-15T02:26:01.926Z,21.63
2018-09-15T02:27:01.802Z,21.63
2018-09-15T02:28:01.873Z,21.63
2018-09-15T02:29:01.999Z,21.63
2018-09-15T02:30:02.013Z,21.64
2018-09-15T02:31:01.748Z,21.64
2018-09-15T02:32:01.847Z,21.64
2018-09-15T02:33:01.781Z,21.65
2018-09-15T02:34:01.937Z,21.62
2018-09-15T02:35:02.023Z,21.65
2018-09-15T02:36:02.132Z,21.62
2018-09-15T02:37:02.234Z,21.63
2018-09-15T02:38:02.325Z,21.64
2018-09-15T02:39:01.884Z,21.63
2018-09-15T02:40:01.968Z,21.63
2018-09-15T02:41:01.723Z,21.63
2018-09-15T02:42:01.904Z,21.64
2018-09-15T02:43:02.012Z,21.64
2018-09-15T02:44:02.306Z,21.63
2018-09-15T02:45:02.325Z,21.63
2018-09-15T02:46:01.949Z,21.63
2018-09-15T02:47:01.925Z,21.65
2018-09-15T02:48:02.162Z,21.63
2018-09-15T02:49:02.164Z,21.64
2018-09-15T02:50:02.006Z,21.63
2018-09-15T02:51:01.849Z,21.63
2018-09-15T02:52:02.324Z,21.65
2018-09-15T02:53:02.094Z,21.63
2018-09-15T02:54:02.008Z,21.61
2018-09-15T02:55:01.882Z,21.64
2018-09-15T02:56:02.208Z,21.63
2018-09-15T02:57:01.963Z,21.63
2018-09-15T02:58:02.188Z,21.63
2018-09-15T02:59:01.700Z,21.62
2018-09-15T03:00:02.065Z,21.62
2018-09-15T03:01:01.916Z,21.62
2018-09-15T03:02:02.284Z,21.63
2018-09-15T03:03:02.131Z,21.62
2018-09-15T03:04:02.009Z,21.63
2018-09-15T03:05:02.267Z,21.6
2018-09-15T03:06:02.257Z,21.62
2018-09-15T03:07:01.857Z,21.62
2018-09-15T03:08:01.987Z,21.65
2018-09-15T03:09:01.924Z,21.61
2018-09-15T03:10:02.433Z,21.63
2018-09-15T03:11:01.847Z,21.63
2018-09-15T03:12:02.142Z,21.62
2018-09-15T03:13:02.152Z,21.63
2018-09-15T03:14:02.363Z,21.63
2018-09-15T03:15:02.083Z,21.61
2018-09-15T03:16:01.739Z,21.62
2018-09-15T03:17:02.301Z,21.62
2018-09-15T03:18:02.104Z,21.6
2018-09-15T03:19:01.717Z,21.62
2018-09-15T03:20:01.924Z,21.62
2018-09-15T03:21:01.784Z,21.63
2018-09-15T03:22:01.873Z,21.62
2018-09-15T03:23:02.243Z,21.62
2018-09-15T03:24:01.903Z,21.6
2018-09-15T03:25:02.276Z,21.61
2018-09-15T03:26:02.008Z,21.61
2018-09-15T03:27:01.775Z,21.61
2018-09-15T03:28:01.977Z,21.62
2018-09-15T03:29:01.706Z,21.62
2018-09-15T03:30:01.803Z,21.61
2018-09-15T03:31:02.217Z,21.6
2018-09-15T03:32:01.876Z,21.62
2018-09-15T03:33:01.908Z,21.6
2018-09-15T03:34:01.897Z,21.61
2018-09-15T03:35:01.721Z,21.63
2018-09-15T03:36:01.800Z,21.6
2018-09-15T03:37:01.918Z,21.6
2018-09-15T03:38:01.925Z,21.61
2018-09-15T03:39:01.775Z,21.6
2018-09-15T03:40:01.941Z,21.61
2018-09-15T03:41:01.780Z,21.59
2018-09-15T03:42:02.901Z,21.6
2018-09-15T03:43:02.073Z,21.62
2018-09-15T03:44:02.163Z,21.59
2018-09-15T03:45:02.103Z,21.6
2018-09-15T03:46:02.276Z,21.63
2018-09-15T03:47:02.056Z,21.6
2018-09-15T03:48:02.245Z,21.61
2018-09-15T03:49:01.818Z,21.61
2018-09-15T03:50:01.990Z,21.6
2018-09-15T03:51:02.190Z,21.61
2018-09-15T03:52:01.908Z,21.6
2018-09-15T03:53:01.888Z,21.61
2018-09-15T03:54:01.842Z,21.6
2018-09-15T03:55:01.864Z,21.62
2018-09-15T03:56:02.032Z,21.6
2018-09-15T03:57:02.017Z,21.59
2018-09-15T03:58:02.096Z,21.62
2018-09-15T03:59:01.903Z,21.61
2018-09-15T04:00:02.487Z,21.61
2018-09-15T04:01:01.964Z,21.6
2018-09-15T04:02:01.818Z,21.59
2018-09-15T04:03:02.422Z,21.6
2018-09-15T04:04:01.925Z,21.59
2018-09-15T04:05:01.940Z,21.6
2018-09-15T04:06:02.057Z,21.59
2018-09-15T04:07:01.809Z,21.61
2018-09-15T04:08:02.017Z,21.59
2018-09-15T04:09:02.088Z,21.58
2018-09-15T04:10:01.829Z,21.59
2018-09-15T04:11:01.601Z,21.6
2018-09-15T04:12:01.740Z,21.6
2018-09-15T04:13:01.845Z,21.6
2018-09-15T04:14:01.891Z,21.6
2018-09-15T04:15:01.901Z,21.58
2018-09-15T04:16:02.011Z,21.58
2018-09-15T04:17:02.011Z,21.61
2018-09-15T04:18:02.002Z,21.59
2018-09-15T04:19:02.670Z,21.58
2018-09-15T04:20:01.974Z,21.58
2018-09-15T04:21:01.751Z,21.6
2018-09-15T04:22:01.772Z,21.59
2018-09-15T04:23:01.934Z,21.6
2018-09-15T04:24:01.967Z,21.57
2018-09-15T04:25:02.240Z,21.58
2018-09-15T04:26:01.904Z,21.57
2018-09-15T04:27:01.714Z,21.59
2018-09-15T04:28:01.880Z,21.6
2018-09-15T04:29:02.034Z,21.59
2018-09-15T04:30:02.107Z,21.57
2018-09-15T04:31:01.929Z,21.59
2018-09-15T04:32:02.204Z,21.59
2018-09-15T04:33:02.093Z,21.57
2018-09-15T04:34:01.894Z,21.58
2018-09-15T04:35:01.884Z,21.58
2018-09-15T04:36:02.027Z,21.59
2018-09-15T04:37:01.886Z,21.58
2018-09-15T04:38:02.202Z,21.59
2018-09-15T04:39:02.226Z,21.57
2018-09-15T04:40:01.929Z,21.58
2018-09-15T04:41:01.887Z,21.59
2018-09-15T04:42:02.027Z,21.55
2018-09-15T04:43:01.793Z,21.55
2018-09-15T04:44:01.945Z,21.58
2018-09-15T04:45:01.924Z,21.55
2018-09-15T04:46:01.978Z,21.6
2018-09-15T04:47:01.806Z,21.57
2018-09-15T04:48:01.795Z,21.57
2018-09-15T04:49:01.931Z,21.57
2018-09-15T04:50:01.919Z,21.59
2018-09-15T04:51:01.961Z,21.54
2018-09-15T04:52:01.877Z,21.55
2018-09-15T04:53:01.891Z,21.55
2018-09-15T04:54:01.809Z,21.54
2018-09-15T04:55:01.857Z,21.55
2018-09-15T04:56:01.944Z,21.57
2018-09-15T04:57:01.892Z,21.54
2018-09-15T04:58:01.958Z,21.55
2018-09-15T04:59:01.955Z,21.55
2018-09-15T05:00:02.060Z,21.58
2018-09-15T05:01:02.048Z,21.55
2018-09-15T05:02:01.922Z,21.55
2018-09-15T05:03:01.884Z,21.54
2018-09-15T05:04:01.797Z,21.55
2018-09-15T05:05:02.283Z,21.54
2018-09-15T05:06:01.930Z,21.54
2018-09-15T05:07:01.849Z,21.54
2018-09-15T05:08:02.146Z,21.55
2018-09-15T05:09:01.844Z,21.54
2018-09-15T05:10:01.937Z,21.55
2018-09-15T05:11:01.761Z,21.53
2018-09-15T05:12:02.030Z,21.55
2018-09-15T05:13:02.551Z,21.55
2018-09-15T05:14:01.842Z,21.54
2018-09-15T05:15:01.879Z,21.52
2018-09-15T05:16:01.826Z,21.55
2018-09-15T05:17:01.800Z,21.52
2018-09-15T05:18:02.123Z,21.54
2018-09-15T05:19:01.720Z,21.55
2018-09-15T05:20:02.338Z,21.55
2018-09-15T05:21:02.050Z,21.53
2018-09-15T05:22:01.859Z,21.55
2018-09-15T05:23:01.781Z,21.54
2018-09-15T05:24:01.803Z,21.54
2018-09-15T05:25:02.173Z,21.53
2018-09-15T05:26:01.897Z,21.55
2018-09-15T05:27:02.150Z,21.52
2018-09-15T05:28:01.771Z,21.54
2018-09-15T05:29:01.877Z,21.53
2018-09-15T05:30:02.191Z,21.51
2018-09-15T05:31:02.147Z,21.53
2018-09-15T05:32:01.915Z,21.54
2018-09-15T05:33:01.871Z,21.49
2018-09-15T05:34:01.893Z,21.54
2018-09-15T05:35:01.941Z,21.54
2018-09-15T05:36:02.128Z,21.52
2018-09-15T05:37:02.166Z,21.53
2018-09-15T05:38:01.803Z,21.53
2018-09-15T05:39:01.902Z,21.54
2018-09-15T05:40:02.837Z,21.54
2018-09-15T05:41:01.806Z,21.52
2018-09-15T05:42:01.899Z,21.51
2018-09-15T05:43:01.766Z,21.54
2018-09-15T05:44:01.785Z,21.53
2018-09-15T05:45:01.795Z,21.52
2018-09-15T05:46:02.036Z,21.53
2018-09-15T05:47:01.814Z,21.53
2018-09-15T05:48:01.830Z,21.53
2018-09-15T05:49:02.167Z,21.53
2018-09-15T05:50:01.918Z,21.53
2018-09-15T05:51:01.853Z,21.52
2018-09-15T05:52:02.082Z,21.53
2018-09-15T05:53:02.000Z,21.54
2018-09-15T05:54:01.939Z,21.54
2018-09-15T05:55:01.903Z,21.52
2018-09-15T05:56:02.146Z,21.52
2018-09-15T05:57:02.159Z,21.52
2018-09-15T05:58:01.992Z,21.52
2018-09-15T05:59:01.725Z,21.53
2018-09-15T06:00:01.933Z,21.53
2018-09-15T06:01:01.754Z,21.52
2018-09-15T06:02:01.964Z,21.52
2018-09-15T06:03:02.076Z,21.5
2018-09-15T06:04:01.965Z,21.53
2018-09-15T06:05:01.745Z,21.47
2018-09-15T06:06:02.133Z,21.48
2018-09-15T06:07:01.961Z,21.44
2018-09-15T06:08:01.888Z,21.38
2018-09-15T06:09:01.852Z,21.34
2018-09-15T06:10:01.862Z,21.29
2018-09-15T06:11:02.244Z,21.28
2018-09-15T06:12:02.012Z,21.21
2018-09-15T06:13:01.973Z,21.19
2018-09-15T06:14:02.066Z,21.11
2018-09-15T06:15:01.846Z,21.06
2018-09-15T06:16:01.725Z,21.08
2018-09-15T06:17:01.807Z,21.07
2018-09-15T06:18:01.895Z,21.11
2018-09-15T06:19:02.167Z,21.11
2018-09-15T06:20:01.979Z,21.13
2018-09-15T06:21:01.973Z,21.16
2018-09-15T06:22:01.870Z,21.15
2018-09-15T06:23:01.967Z,21.16
2018-09-15T06:24:01.801Z,21.17
2018-09-15T06:25:01.812Z,21.19
2018-09-15T06:26:01.843Z,21.2
2018-09-15T06:27:01.918Z,21.19
2018-09-15T06:28:01.779Z,21.21
2018-09-15T06:29:01.759Z,21.22
2018-09-15T06:30:02.158Z,21.21
2018-09-15T06:31:02.201Z,21.24
2018-09-15T06:32:02.056Z,21.22
2018-09-15T06:33:02.207Z,21.23
2018-09-15T06:34:01.878Z,21.24
2018-09-15T06:35:02.443Z,21.28
2018-09-15T06:36:01.986Z,21.25
2018-09-15T06:37:02.023Z,21.28
2018-09-15T06:38:01.684Z,21.29
2018-09-15T06:39:01.900Z,21.29
2018-09-15T06:40:01.912Z,21.29
2018-09-15T06:41:01.697Z,21.32
2018-09-15T06:42:01.925Z,21.29
2018-09-15T06:43:01.953Z,21.33
2018-09-15T06:44:01.773Z,21.32
2018-09-15T06:45:02.155Z,21.32
2018-09-15T06:46:01.988Z,21.32
2018-09-15T06:47:01.820Z,21.32
2018-09-15T06:48:01.863Z,21.32
2018-09-15T06:49:01.956Z,21.33
2018-09-15T06:50:01.804Z,21.32
2018-09-15T06:51:01.834Z,21.34
2018-09-15T06:52:01.950Z,21.33
2018-09-15T06:53:01.891Z,21.33
2018-09-15T06:54:01.845Z,21.35
2018-09-15T06:55:01.867Z,21.35
2018-09-15T06:56:01.670Z,21.33
2018-09-15T06:57:01.947Z,21.34
2018-09-15T06:58:01.779Z,21.36
2018-09-15T06:59:01.975Z,21.35
2018-09-15T07:00:01.930Z,21.36
2018-09-15T07:01:02.031Z,21.37
2018-09-15T07:02:01.783Z,21.36
2018-09-15T07:03:01.884Z,21.35
2018-09-15T07:04:01.759Z,21.35
2018-09-15T07:05:01.872Z,21.36
2018-09-15T07:06:01.889Z,21.37
2018-09-15T07:07:02.179Z,21.38
2018-09-15T07:08:01.825Z,21.39
2018-09-15T07:09:01.900Z,21.36
2018-09-15T07:10:01.990Z,21.38
2018-09-15T07:11:01.790Z,21.37
2018-09-15T07:12:01.798Z,21.37
2018-09-15T07:13:02.338Z,21.36
2018-09-15T07:14:02.094Z,21.38
2018-09-15T07:15:01.926Z,21.39
2018-09-15T07:16:01.999Z,21.37
2018-09-15T07:17:02.188Z,21.38
2018-09-15T07:18:02.027Z,21.38
2018-09-15T07:19:01.797Z,21.38
2018-09-15T07:20:02.143Z,21.38
2018-09-15T07:21:01.913Z,21.37
2018-09-15T07:22:01.890Z,21.36
2018-09-15T07:23:02.094Z,21.4
2018-09-15T07:24:01.863Z,21.37
2018-09-15T07:25:01.900Z,21.38
2018-09-15T07:26:02.461Z,21.38
2018-09-15T07:27:01.823Z,21.37
2018-09-15T07:28:01.903Z,21.39
2018-09-15T07:29:02.095Z,21.39
2018-09-15T07:30:01.935Z,21.38
2018-09-15T07:31:01.848Z,21.39
2018-09-15T07:32:02.043Z,21.4
2018-09-15T07:33:01.807Z,21.39
2018-09-15T07:34:01.807Z,21.43
2018-09-15T07:35:01.791Z,21.46
2018-09-15T07:36:01.883Z,21.44
2018-09-15T07:37:01.659Z,21.43
2018-09-15T07:38:02.030Z,21.38
2018-09-15T07:39:02.153Z,21.4
2018-09-15T07:40:01.956Z,21.42
2018-09-15T07:41:01.845Z,21.42
2018-09-15T07:42:01.816Z,21.39
2018-09-15T07:43:01.867Z,21.4
2018-09-15T07:44:02.142Z,21.42
2018-09-15T07:45:02.070Z,21.4
2018-09-15T07:46:02.016Z,21.42
2018-09-15T07:47:02.093Z,21.38
2018-09-15T07:48:01.809Z,21.37
2018-09-15T07:49:02.010Z,21.38
2018-09-15T07:50:01.677Z,21.38
2018-09-15T07:51:01.866Z,21.38
2018-09-15T07:52:01.968Z,21.39
2018-09-15T07:53:02.136Z,21.39
2018-09-15T07:54:01.814Z,21.39
2018-09-15T07:55:01.867Z,21.38
2018-09-15T07:56:01.866Z,21.38
2018-09-15T07:57:02.028Z,21.39
2018-09-15T07:58:03.090Z,21.39
2018-09-15T07:59:01.784Z,21.39
2018-09-15T08:00:01.820Z,21.42
2018-09-15T08:01:01.837Z,21.42
2018-09-15T08:02:02.221Z,21.43
2018-09-15T08:03:01.713Z,21.33
2018-09-15T08:04:01.777Z,21.32
2018-09-15T08:05:01.875Z,21.31
2018-09-15T08:06:01.935Z,21.24
2018-09-15T08:07:01.708Z,21.2
2018-09-15T08:08:01.869Z,21.18
2018-09-15T08:09:01.813Z,21.17
2018-09-15T08:10:01.982Z,21.15
2018-09-15T08:11:02.185Z,21.1
2018-09-15T08:12:01.955Z,21.1
2018-09-15T08:13:02.092Z,21.09
2018-09-15T08:14:01.816Z,21.04
2018-09-15T08:15:01.825Z,21.09
2018-09-15T08:16:01.923Z,21.06
2018-09-15T08:17:01.942Z,21.02
2018-09-15T08:18:01.767Z,21.03
2018-09-15T08:19:01.985Z,20.99
2018-09-15T08:20:01.887Z,20.98
2018-09-15T08:21:01.711Z,21
2018-09-15T08:22:01.975Z,21.02
2018-09-15T08:23:01.899Z,20.98
2018-09-15T08:24:01.875Z,20.94
2018-09-15T08:25:01.853Z,20.93
2018-09-15T08:26:02.133Z,20.91
2018-09-15T08:27:01.792Z,20.93
2018-09-15T08:28:02.011Z,20.96
2018-09-15T08:29:01.764Z,20.95
2018-09-15T08:30:01.910Z,20.96
2018-09-15T08:31:01.873Z,20.96
2018-09-15T08:32:02.414Z,20.98
2018-09-15T08:33:01.787Z,20.96
2018-09-15T08:34:01.866Z,20.94
2018-09-15T08:35:02.223Z,20.95
2018-09-15T08:36:02.097Z,20.94
2018-09-15T08:37:01.838Z,20.91
2018-09-15T08:38:01.795Z,20.93
2018-09-15T08:39:01.910Z,20.94
2018-09-15T08:40:02.197Z,20.9
2018-09-15T08:41:01.949Z,20.88
2018-09-15T08:42:01.730Z,20.92
2018-09-15T08:43:01.970Z,20.91
2018-09-15T08:44:01.705Z,20.94
2018-09-15T08:45:02.008Z,20.89
2018-09-15T08:46:01.814Z,20.88
2018-09-15T08:47:02.072Z,20.88
2018-09-15T08:48:01.915Z,20.88
2018-09-15T08:49:01.888Z,20.93
2018-09-15T08:50:01.906Z,20.91
2018-09-15T08:51:02.029Z,20.88
2018-09-15T08:52:01.777Z,20.85
2018-09-15T08:53:01.929Z,20.81
2018-09-15T08:54:02.292Z,20.85
2018-09-15T08:55:02.108Z,20.88
2018-09-15T08:56:02.231Z,20.88
2018-09-15T08:57:01.811Z,20.81
2018-09-15T08:58:01.752Z,20.85
2018-09-15T08:59:01.989Z,20.83
2018-09-15T09:00:01.816Z,20.86
2018-09-15T09:01:01.965Z,20.86
2018-09-15T09:02:01.932Z,20.86
2018-09-15T09:03:01.951Z,20.85
2018-09-15T09:04:01.943Z,20.84
2018-09-15T09:05:01.846Z,20.87
2018-09-15T09:06:02.235Z,20.87
2018-09-15T09:07:01.820Z,20.89
2018-09-15T09:08:01.848Z,20.9
2018-09-15T09:09:01.894Z,20.87
2018-09-15T09:10:01.856Z,20.86
2018-09-15T09:11:02.299Z,20.89
2018-09-15T09:12:01.689Z,20.91
2018-09-15T09:13:01.770Z,20.9
2018-09-15T09:14:01.850Z,20.93
2018-09-15T09:15:01.954Z,20.9
2018-09-15T09:16:01.908Z,20.89
2018-09-15T09:17:01.883Z,20.89
2018-09-15T09:18:01.968Z,20.89
2018-09-15T09:19:01.954Z,20.89
2018-09-15T09:20:02.670Z,20.87
2018-09-15T09:21:01.807Z,20.88
2018-09-15T09:22:01.925Z,20.91
2018-09-15T09:23:01.836Z,20.92
2018-09-15T09:24:01.686Z,20.93
2018-09-15T09:25:01.857Z,20.92
2018-09-15T09:26:02.518Z,20.87
2018-09-15T09:27:01.723Z,20.85
2018-09-15T09:28:01.814Z,20.88
2018-09-15T09:29:01.808Z,20.92
2018-09-15T09:30:01.892Z,20.93
2018-09-15T09:31:01.814Z,20.94
2018-09-15T09:32:01.823Z,20.92
2018-09-15T09:33:01.792Z,20.94
2018-09-15T09:34:01.678Z,20.94
2018-09-15T09:35:01.801Z,20.98
2018-09-15T09:36:01.789Z,20.98
2018-09-15T09:37:01.843Z,20.99
2018-09-15T09:38:01.859Z,20.99
2018-09-15T09:39:02.000Z,21
2018-09-15T09:40:02.089Z,20.99
2018-09-15T09:41:01.898Z,21
2018-09-15T09:42:01.896Z,21.01
2018-09-15T09:43:01.918Z,21
2018-09-15T09:44:01.717Z,21.01
2018-09-15T09:45:01.889Z,21.02
2018-09-15T09:46:02.321Z,21.03
2018-09-15T09:47:01.927Z,21.02
2018-09-15T09:48:02.902Z,21.03
2018-09-15T09:49:01.801Z,21.03
2018-09-15T09:50:01.839Z,21.01
2018-09-15T09:51:02.204Z,21.03
2018-09-15T09:52:01.753Z,21.03
2018-09-15T09:53:01.815Z,21.01
2018-09-15T09:54:01.821Z,21.02
2018-09-15T09:55:01.923Z,21.01
2018-09-15T09:56:01.932Z,21.01
2018-09-15T09:57:01.843Z,20.99
2018-09-15T09:58:01.824Z,21
2018-09-15T09:59:01.881Z,21.02
2018-09-15T10:00:01.851Z,21.03
2018-09-15T10:01:02.073Z,21.04
2018-09-15T10:02:01.834Z,21.02
2018-09-15T10:03:01.844Z,21.03
2018-09-15T10:04:02.015Z,21.03
2018-09-15T10:05:01.841Z,21.06
2018-09-15T10:06:01.838Z,21.03
2018-09-15T10:07:02.131Z,21.01
2018-09-15T10:08:01.956Z,20.98
2018-09-15T10:09:02.114Z,20.96
2018-09-15T10:10:01.830Z,20.99
2018-09-15T10:11:01.900Z,20.98
2018-09-15T10:12:01.891Z,21.01
2018-09-15T10:13:02.010Z,21
2018-09-15T10:14:01.889Z,21.02
2018-09-15T10:15:01.930Z,21.05
2018-09-15T10:16:02.727Z,21.05
2018-09-15T10:17:02.130Z,21.07
2018-09-15T10:18:01.990Z,21.09
2018-09-15T10:19:02.006Z,21.07
2018-09-15T10:20:01.952Z,21.09
2018-09-15T10:21:01.810Z,21.11
2018-09-15T10:22:01.796Z,21.13
2018-09-15T10:23:02.568Z,21.18
2018-09-15T10:24:01.728Z,21.17
2018-09-15T10:25:04.125Z,21.17
2018-09-15T10:26:01.881Z,21.18
2018-09-15T10:27:03.122Z,21.19
2018-09-15T10:28:01.792Z,21.19
2018-09-15T10:29:01.942Z,21.21
2018-09-15T10:30:01.823Z,21.22
2018-09-15T10:31:01.769Z,21.22
2018-09-15T10:32:02.328Z,21.22
2018-09-15T10:33:01.656Z,21.25
2018-09-15T10:34:01.745Z,21.25
2018-09-15T10:35:01.686Z,21.29
2018-09-15T10:36:01.951Z,21.29
2018-09-15T10:37:01.880Z,21.28
2018-09-15T10:38:02.227Z,21.3
2018-09-15T10:39:01.820Z,21.3
2018-09-15T10:40:01.927Z,21.33
2018-09-15T10:41:01.959Z,21.34
2018-09-15T10:42:01.994Z,21.34
2018-09-15T10:43:02.007Z,21.32
2018-09-15T10:44:02.085Z,21.32
2018-09-15T10:45:01.819Z,21.34
2018-09-15T10:46:02.462Z,21.34
2018-09-15T10:47:01.699Z,21.36
2018-09-15T10:48:01.935Z,21.33
2018-09-15T10:49:01.826Z,21.36
2018-09-15T10:50:01.794Z,21.32
2018-09-15T10:51:01.855Z,21.34
2018-09-15T10:52:01.899Z,21.34
2018-09-15T10:53:01.783Z,21.35
2018-09-15T10:54:01.938Z,21.35
2018-09-15T10:55:01.842Z,21.35
2018-09-15T10:56:01.706Z,21.36
2018-09-15T10:57:01.782Z,21.35
2018-09-15T10:58:01.787Z,21.36
2018-09-15T10:59:01.742Z,21.35
2018-09-15T11:00:01.834Z,21.38
2018-09-15T11:01:01.863Z,21.36
2018-09-15T11:02:02.049Z,21.37
2018-09-15T11:03:01.906Z,21.35
2018-09-15T11:04:01.801Z,21.37
2018-09-15T11:05:01.788Z,21.36
2018-09-15T11:06:01.976Z,21.36
2018-09-15T11:07:02.154Z,21.37
2018-09-15T11:08:02.129Z,21.37
2018-09-15T11:09:01.805Z,21.36
2018-09-15T11:10:01.796Z,21.39
2018-09-15T11:11:01.781Z,21.4
2018-09-15T11:12:01.999Z,21.39
2018-09-15T11:13:01.804Z,21.39
2018-09-15T11:14:01.762Z,21.38
2018-09-15T11:15:01.920Z,21.39
2018-09-15T11:16:02.025Z,21.4
2018-09-15T11:17:03.237Z,21.38
2018-09-15T11:18:01.600Z,21.39
2018-09-15T11:19:01.908Z,21.36
2018-09-15T11:20:02.018Z,21.36
2018-09-15T11:21:02.136Z,21.36
2018-09-15T11:22:01.687Z,21.38
2018-09-15T11:23:01.928Z,21.37
2018-09-15T11:24:01.795Z,21.36
2018-09-15T11:25:01.952Z,21.36
2018-09-15T11:26:02.120Z,21.37
2018-09-15T11:27:01.856Z,21.35
2018-09-15T11:28:03.071Z,21.36
2018-09-15T11:29:02.313Z,21.36
2018-09-15T11:30:01.840Z,21.35
2018-09-15T11:31:02.044Z,21.35
2018-09-15T11:32:01.610Z,21.37
2018-09-15T11:33:01.686Z,21.35
2018-09-15T11:34:02.421Z,21.35
2018-09-15T11:35:01.882Z,21.35
2018-09-15T11:36:01.747Z,21.36
2018-09-15T11:37:01.959Z,21.35
2018-09-15T11:38:01.935Z,21.36
2018-09-15T11:39:01.951Z,21.34
2018-09-15T11:40:01.962Z,21.36
2018-09-15T11:41:02.302Z,21.35
2018-09-15T11:42:01.916Z,21.36
2018-09-15T11:43:01.792Z,21.36
2018-09-15T11:44:01.748Z,21.34
2018-09-15T11:45:01.872Z,21.33
2018-09-15T11:46:02.133Z,21.35
2018-09-15T11:47:01.858Z,21.37
2018-09-15T11:48:02.592Z,21.34
2018-09-15T11:49:02.079Z,21.34
2018-09-15T11:50:01.601Z,21.34
2018-09-15T11:51:02.059Z,21.35
2018-09-15T11:52:01.858Z,21.36
2018-09-15T11:53:01.692Z,21.35
2018-09-15T11:54:01.730Z,21.34
2018-09-15T11:55:01.683Z,21.35
2018-09-15T11:56:02.242Z,21.34
2018-09-15T11:57:01.708Z,21.35
2018-09-15T11:58:01.746Z,21.34
2018-09-15T11:59:01.824Z,21.33
2018-09-15T12:00:02.279Z,21.33
2018-09-15T12:01:01.920Z,21.35
2018-09-15T12:02:02.579Z,21.35
2018-09-15T12:03:01.881Z,21.32
2018-09-15T12:04:01.782Z,21.37
2018-09-15T12:05:01.806Z,21.34
2018-09-15T12:06:01.722Z,21.33
2018-09-15T12:07:01.846Z,21.34
2018-09-15T12:08:01.705Z,21.34
2018-09-15T12:09:01.740Z,21.33
2018-09-15T12:10:01.854Z,21.34
2018-09-15T12:11:01.839Z,21.34
2018-09-15T12:12:01.926Z,21.33
2018-09-15T12:13:02.028Z,21.34
2018-09-15T12:14:02.078Z,21.35
2018-09-15T12:15:01.832Z,21.33
2018-09-15T12:16:01.821Z,21.33
2018-09-15T12:17:01.850Z,21.33
2018-09-15T12:18:01.808Z,21.34
2018-09-15T12:19:01.942Z,21.36
2018-09-15T12:20:01.722Z,21.36
2018-09-15T12:21:01.757Z,21.38
2018-09-15T12:22:01.776Z,21.34
2018-09-15T12:23:01.634Z,21.38
2018-09-15T12:24:01.784Z,21.38
2018-09-15T12:25:01.820Z,21.38
2018-09-15T12:26:02.098Z,21.38
2018-09-15T12:27:02.034Z,21.39
2018-09-15T12:28:02.012Z,21.37
2018-09-15T12:29:01.805Z,21.38
2018-09-15T12:30:01.990Z,21.4
2018-09-15T12:31:02.117Z,21.42
2018-09-15T12:32:01.893Z,21.42
2018-09-15T12:33:02.105Z,21.43
2018-09-15T12:34:02.100Z,21.44
2018-09-15T12:35:01.771Z,21.45
2018-09-15T12:36:02.059Z,21.46
2018-09-15T12:36:58.846Z,21.51
2018-09-15T12:37:58.928Z,21.43
2018-09-15T12:38:59.303Z,21.46
2018-09-15T12:39:58.734Z,21.44
2018-09-15T12:40:58.710Z,21.39
2018-09-15T12:41:58.788Z,21.38
2018-09-15T12:42:59.096Z,21.36
2018-09-15T12:43:25.060Z,21.36
2018-09-15T12:44:24.969Z,21.33
2018-09-15T12:45:24.944Z,21.32
2018-09-15T12:46:09.644Z,21.32
2018-09-15T12:47:09.762Z,21.31
2018-09-15T12:48:09.787Z,21.3
2018-09-15T12:49:16.005Z,21.29
2018-09-15T12:50:16.285Z,21.35
2018-09-15T12:51:16.287Z,21.31
2018-09-15T12:52:16.594Z,21.29
2018-09-15T12:53:16.069Z,21.29